Time;durP1;ratioP1;P1;durP2;ratioP2;P2;SDS_P1;SDS_P2;PMS_P1;PMS_P2;Temp;Humidity;BMP_temperature;BMP_pressure;BME280_temperature;BME280_humidity;BME280_pressure;Samples;Min_cycle;Max_cycle;Signal;HPM_P1;HPM_P2
2021/04/27 00:01:26;;;;;;;6.43;2.20;;;7.60;82.20;;;;;;6127278;23;20331;-83
2021/04/27 00:03:53;;;;;;;5.25;2.30;;;7.60;82.20;;;;;;6127050;23;20030;-83
2021/04/27 00:06:19;;;;;;;6.85;2.38;;;7.60;82.30;;;;;;6126386;23;20014;-83
2021/04/27 00:08:45;;;;;;;9.50;2.40;;;7.50;82.40;;;;;;6127207;23;20021;-83
2021/04/27 00:11:11;;;;;;;7.47;2.35;;;7.50;82.20;;;;;;6127114;23;20343;-83
2021/04/27 00:13:37;;;;;;;5.70;2.30;;;7.40;82.40;;;;;;6125781;23;20100;-84
2021/04/27 00:16:04;;;;;;;7.15;2.88;;;7.40;82.70;;;;;;6126704;23;20022;-84
2021/04/27 00:18:30;;;;;;;6.40;2.42;;;7.40;82.90;;;;;;6125729;23;20351;-83
2021/04/27 00:20:56;;;;;;;7.10;2.67;;;7.30;82.90;;;;;;6125490;23;20022;-84
2021/04/27 00:23:22;;;;;;;5.68;2.22;;;7.30;82.70;;;;;;6126921;23;20021;-83
2021/04/27 00:25:48;;;;;;;7.18;2.50;;;7.30;82.60;;;;;;6125538;23;20033;-83
2021/04/27 00:28:13;;;;;;;6.93;2.88;;;7.20;82.60;;;;;;6126883;23;20017;-84
2021/04/27 00:30:39;;;;;;;8.50;2.42;;;7.20;82.70;;;;;;6126030;23;20018;-84
2021/04/27 00:33:05;;;;;;;6.72;2.40;;;7.10;82.80;;;;;;6125600;23;20027;-83
2021/04/27 00:35:31;;;;;;;7.40;2.47;;;7.10;82.90;;;;;;6126371;23;20359;-83
2021/04/27 00:37:58;;;;;;;5.22;2.75;;;7.10;82.90;;;;;;6126942;23;20014;-82
2021/04/27 00:40:26;;;;;;;9.10;2.72;;;7.00;82.80;;;;;;6125755;23;20022;-83
2021/04/27 00:42:54;;;;;;;7.47;2.75;;;7.00;82.90;;;;;;6126362;23;20025;-83
2021/04/27 00:45:23;;;;;;;6.53;2.40;;;6.90;83.00;;;;;;6126603;23;20025;-83
2021/04/27 00:47:50;;;;;;;8.50;3.10;;;6.90;83.00;;;;;;6125194;23;20473;-82
2021/04/27 00:50:38;;;;;;;8.55;2.92;;;6.80;82.90;;;;;;6126495;23;20018;-83
2021/04/27 00:53:05;;;;;;;7.90;3.25;;;6.80;83.00;;;;;;6126791;23;20017;-82
2021/04/27 00:55:32;;;;;;;5.88;2.58;;;6.70;83.00;;;;;;6125845;23;20018;-83
2021/04/27 00:58:01;;;;;;;5.05;2.50;;;6.70;83.30;;;;;;6126663;23;20022;-83
2021/04/27 01:00:33;;;;;;;6.45;2.72;;;6.70;83.30;;;;;;6126586;23;20020;-82
2021/04/27 01:03:00;;;;;;;6.47;2.60;;;6.60;83.40;;;;;;6125198;23;20014;-83
2021/04/27 01:05:28;;;;;;;7.18;2.70;;;6.60;83.50;;;;;;6126435;23;20093;-82
2021/04/27 01:08:07;;;;;;;5.40;2.63;;;6.60;83.70;;;;;;6125043;23;20543;-82
2021/04/27 01:10:40;;;;;;;6.40;2.72;;;6.50;83.50;;;;;;6125926;23;20030;-82
2021/04/27 01:13:18;;;;;;;7.47;2.90;;;6.50;83.70;;;;;;6126237;23;20342;-82
2021/04/27 01:15:45;;;;;;;7.63;2.88;;;6.40;83.50;;;;;;6125162;23;20022;-82
2021/04/27 01:18:12;;;;;;;5.90;3.08;;;6.40;83.50;;;;;;6125774;23;20021;-83
2021/04/27 01:20:42;;;;;;;9.18;3.38;;;6.30;83.40;;;;;;6125995;23;20013;-82
2021/04/27 01:23:23;;;;;;;7.93;3.25;;;6.30;83.50;;;;;;6125616;23;20323;-82
2021/04/27 01:26:12;;;;;;;5.40;2.85;;;6.30;83.40;;;;;;6126031;23;20093;-83
2021/04/27 01:28:39;;;;;;;6.22;3.28;;;6.20;83.80;;;;;;6125428;23;20045;-82
2021/04/27 01:31:06;;;;;;;5.38;2.83;;;6.20;83.70;;;;;;6124824;23;20014;-83
2021/04/27 01:33:32;;;;;;;9.60;3.35;;;6.20;83.60;;;;;;6125846;23;20022;-82
2021/04/27 01:36:00;;;;;;;8.65;3.28;;;6.20;83.80;;;;;;6125176;23;20057;-82
2021/04/27 01:38:28;;;;;;;7.07;3.40;;;6.10;83.90;;;;;;6126252;23;20454;-82
2021/04/27 01:40:55;;;;;;;8.43;3.35;;;6.10;84.00;;;;;;6100178;23;20045;-82
2021/04/27 01:43:24;;;;;;;7.78;3.75;;;6.10;84.20;;;;;;6125291;23;20021;-81
2021/04/27 01:45:57;;;;;;;6.18;3.10;;;6.00;84.10;;;;;;6125132;23;20018;-82
2021/04/27 01:48:24;;;;;;;6.55;3.22;;;6.00;84.10;;;;;;6125441;23;20097;-82
2021/04/27 01:50:50;;;;;;;7.18;3.33;;;6.00;83.80;;;;;;6124754;23;20473;-82
2021/04/27 01:53:17;;;;;;;7.68;3.50;;;5.90;83.80;;;;;;6126309;23;20022;-82
2021/04/27 01:55:43;;;;;;;6.90;3.22;;;5.90;84.00;;;;;;6126013;23;20025;-82
2021/04/27 01:58:09;;;;;;;9.35;3.70;;;5.90;83.80;;;;;;6125110;23;20028;-82
2021/04/27 02:00:35;;;;;;;8.52;3.33;;;5.80;83.40;;;;;;6125961;23;20022;-82
2021/04/27 02:03:01;;;;;;;7.88;3.40;;;5.80;83.30;;;;;;6125883;23;20459;-83
2021/04/27 02:05:28;;;;;;;8.82;3.30;;;5.70;83.40;;;;;;6125252;23;20017;-82
2021/04/27 02:07:55;;;;;;;7.43;3.65;;;5.70;83.70;;;;;;6125755;23;20396;-82
2021/04/27 02:10:22;;;;;;;10.65;3.30;;;5.70;83.60;;;;;;6126226;23;20018;-82
2021/04/27 02:12:52;;;;;;;7.55;3.40;;;5.60;83.30;;;;;;6124817;23;20018;-82
2021/04/27 02:15:21;;;;;;;7.13;3.70;;;5.60;83.30;;;;;;6125891;23;20022;-82
2021/04/27 02:17:48;;;;;;;10.23;3.85;;;5.60;83.50;;;;;;6124461;23;20014;-82
2021/04/27 02:20:15;;;;;;;7.80;3.90;;;5.50;83.70;;;;;;6124863;23;20018;-82
2021/04/27 02:22:45;;;;;;;7.55;3.80;;;5.50;84.00;;;;;;6125864;23;20386;-82
2021/04/27 02:25:12;;;;;;;9.48;3.60;;;5.50;84.30;;;;;;6125858;23;20073;-82
2021/04/27 02:27:40;;;;;;;9.93;3.88;;;5.50;84.50;;;;;;6125021;23;20042;-82
2021/04/27 02:30:11;;;;;;;8.18;3.83;;;5.50;84.50;;;;;;6125324;23;20021;-82
2021/04/27 02:32:39;;;;;;;8.10;3.50;;;5.50;84.70;;;;;;6124975;23;20018;-82
2021/04/27 02:35:08;;;;;;;7.70;3.55;;;5.50;84.90;;;;;;6125350;23;20351;-82
2021/04/27 02:37:33;;;;;;;6.82;3.92;;;5.40;84.70;;;;;;6125365;23;20014;-82
2021/04/27 02:39:59;;;;;;;8.43;4.47;;;5.40;84.60;;;;;;6124726;23;20018;-82
2021/04/27 02:42:26;;;;;;;7.43;4.10;;;5.40;85.00;;;;;;6127700;23;20430;-82
2021/04/27 02:44:53;;;;;;;7.28;3.88;;;5.40;84.90;;;;;;6127746;23;20096;-81
2021/04/27 02:47:19;;;;;;;7.95;4.28;;;5.40;85.00;;;;;;6127019;23;20037;-82
2021/04/27 02:49:45;;;;;;;6.88;3.65;;;5.30;84.90;;;;;;6127240;23;20375;-82
2021/04/27 02:52:11;;;;;;;6.18;3.53;;;5.30;84.50;;;;;;6128004;23;20018;-82
2021/04/27 02:54:36;;;;;;;6.22;3.58;;;5.30;84.60;;;;;;6126551;23;20029;-82
2021/04/27 02:57:02;;;;;;;7.28;3.85;;;5.20;84.30;;;;;;6127638;23;20018;-82
2021/04/27 02:59:28;;;;;;;10.70;4.05;;;5.20;84.50;;;;;;6127805;23;20046;-83
2021/04/27 03:01:54;;;;;;;8.20;3.90;;;5.20;84.60;;;;;;6126518;23;20025;-82
2021/04/27 03:04:19;;;;;;;8.68;4.18;;;5.20;84.90;;;;;;6127619;23;20079;-81
2021/04/27 03:06:45;;;;;;;8.40;4.20;;;5.20;84.80;;;;;;6126843;23;20098;-82
2021/04/27 03:09:11;;;;;;;8.10;4.10;;;5.20;85.00;;;;;;6126930;23;20021;-82
2021/04/27 03:11:36;;;;;;;9.80;4.22;;;5.10;85.00;;;;;;6127163;23;20378;-82
2021/04/27 03:14:02;;;;;;;11.43;4.18;;;5.10;84.80;;;;;;6127813;23;20029;-82
2021/04/27 03:16:28;;;;;;;6.45;3.70;;;5.00;84.70;;;;;;6126898;23;20014;-82
2021/04/27 03:18:53;;;;;;;9.57;4.10;;;5.00;85.00;;;;;;6127090;23;20105;-82
2021/04/27 03:21:19;;;;;;;8.23;3.97;;;5.00;84.90;;;;;;6127637;23;20428;-82
2021/04/27 03:23:45;;;;;;;8.15;4.45;;;5.00;84.60;;;;;;6126453;23;20024;-82
2021/04/27 03:26:13;;;;;;;8.43;4.28;;;5.00;85.00;;;;;;6127203;23;20042;-82
2021/04/27 03:28:42;;;;;;;7.30;3.90;;;5.00;85.20;;;;;;6126416;23;20018;-82
2021/04/27 03:31:07;;;;;;;7.25;3.75;;;5.00;85.10;;;;;;6127678;23;20014;-82
2021/04/27 03:33:34;;;;;;;6.50;3.40;;;4.90;84.90;;;;;;6126168;23;20076;-81
2021/04/27 03:36:00;;;;;;;7.75;4.30;;;4.90;84.80;;;;;;6125489;23;20022;-82
2021/04/27 03:38:25;;;;;;;7.50;4.35;;;4.90;85.10;;;;;;6126708;23;20018;-81
2021/04/27 03:40:52;;;;;;;8.68;4.13;;;4.80;85.20;;;;;;6126018;23;20029;-82
2021/04/27 03:43:18;;;;;;;8.15;4.15;;;4.80;84.90;;;;;;6126073;23;20045;-82
2021/04/27 03:45:45;;;;;;;6.90;4.15;;;4.80;85.10;;;;;;6126855;23;20025;-82
2021/04/27 03:48:14;;;;;;;8.93;4.40;;;4.80;85.00;;;;;;6127031;23;20387;-82
2021/04/27 03:50:41;;;;;;;9.05;4.43;;;4.80;85.50;;;;;;6125577;23;20049;-81
2021/04/27 03:53:07;;;;;;;7.15;3.95;;;4.80;85.50;;;;;;6126718;23;20342;-82
2021/04/27 03:55:34;;;;;;;9.27;4.40;;;4.80;85.50;;;;;;6126916;23;20072;-82
2021/04/27 03:58:00;;;;;;;7.65;4.13;;;4.70;85.60;;;;;;6126079;23;20045;-82
2021/04/27 04:00:26;;;;;;;8.90;4.30;;;4.70;85.60;;;;;;6127195;23;20053;-82
2021/04/27 04:02:52;;;;;;;6.45;4.20;;;4.70;85.60;;;;;;6126024;23;20025;-82
2021/04/27 04:05:18;;;;;;;9.40;4.38;;;4.70;86.30;;;;;;6125998;23;20053;-82
2021/04/27 04:07:44;;;;;;;7.13;3.88;;;4.70;85.40;;;;;;6126836;23;20068;-82
2021/04/27 04:10:12;;;;;;;6.55;4.13;;;4.70;85.30;;;;;;6126969;23;20022;-82
2021/04/27 04:12:39;;;;;;;7.10;4.03;;;4.70;85.90;;;;;;6125536;23;20018;-82
2021/04/27 04:15:08;;;;;;;7.45;4.30;;;4.60;85.20;;;;;;6126834;23;20025;-81
2021/04/27 04:17:34;;;;;;;6.97;4.15;;;4.60;85.30;;;;;;6126741;23;20018;-81
2021/04/27 04:20:01;;;;;;;9.27;4.32;;;4.60;85.00;;;;;;6126422;23;20022;-82
2021/04/27 04:22:27;;;;;;;8.73;4.15;;;4.50;85.10;;;;;;6126997;23;20076;-82
2021/04/27 04:24:53;;;;;;;8.20;4.63;;;4.50;84.90;;;;;;6125795;23;20026;-81
2021/04/27 04:27:18;;;;;;;8.13;4.75;;;4.40;85.20;;;;;;6126896;23;20014;-81
2021/04/27 04:29:47;;;;;;;8.32;4.55;;;4.40;85.40;;;;;;6126702;23;20068;-81
2021/04/27 04:32:13;;;;;;;7.65;4.45;;;4.40;85.20;;;;;;6125628;23;20018;-82
2021/04/27 04:34:40;;;;;;;9.02;4.60;;;4.40;85.30;;;;;;6126445;23;20040;-81
2021/04/27 04:37:06;;;;;;;8.18;4.60;;;4.30;85.30;;;;;;6126984;23;20018;-81
2021/04/27 04:39:32;;;;;;;8.45;5.10;;;4.40;85.00;;;;;;6125640;23;20053;-81
2021/04/27 04:41:58;;;;;;;9.88;4.50;;;4.30;85.20;;;;;;6126905;23;20435;-82
2021/04/27 04:44:24;;;;;;;7.90;4.43;;;4.30;85.40;;;;;;6126045;23;20024;-81
2021/04/27 04:46:50;;;;;;;8.15;4.15;;;4.30;85.40;;;;;;6122419;23;20407;-81
2021/04/27 04:49:16;;;;;;;8.80;4.55;;;4.30;85.40;;;;;;6124108;23;20018;-82
2021/04/27 04:51:41;;;;;;;8.32;4.50;;;4.20;86.00;;;;;;6124148;23;20018;-81
2021/04/27 04:54:07;;;;;;;10.13;4.43;;;4.20;85.20;;;;;;6125700;23;20022;-81
2021/04/27 04:56:33;;;;;;;7.60;4.68;;;4.30;85.30;;;;;;6126664;23;20028;-82
2021/04/27 04:58:59;;;;;;;7.55;4.63;;;4.20;85.20;;;;;;6126720;23;20022;-82
2021/04/27 05:01:25;;;;;;;8.43;4.93;;;4.20;85.40;;;;;;6125474;23;20029;-82
2021/04/27 05:03:50;;;;;;;10.13;4.70;;;4.20;85.50;;;;;;6125929;23;20025;-83
2021/04/27 05:06:17;;;;;;;7.70;4.68;;;4.20;85.70;;;;;;6126618;23;20093;-82
2021/04/27 05:08:46;;;;;;;8.23;4.82;;;4.20;85.60;;;;;;6125275;23;20328;-82
2021/04/27 05:11:12;;;;;;;7.35;4.38;;;4.20;85.60;;;;;;6126561;23;20038;-82
2021/04/27 05:13:38;;;;;;;11.13;4.88;;;4.20;85.80;;;;;;6126156;23;20099;-82
2021/04/27 05:16:06;;;;;;;7.82;4.72;;;4.20;85.90;;;;;;6125698;23;20014;-81
2021/04/27 05:18:33;;;;;;;8.27;4.35;;;4.20;86.10;;;;;;6126135;23;20339;-83
2021/04/27 05:20:58;;;;;;;6.97;4.47;;;4.20;86.10;;;;;;6126476;23;20018;-82
2021/04/27 05:23:25;;;;;;;8.85;4.90;;;4.20;86.00;;;;;;6125399;23;20050;-82
2021/04/27 05:25:51;;;;;;;9.98;4.88;;;4.20;86.00;;;;;;6125756;23;20367;-83
2021/04/27 05:28:17;;;;;;;8.05;4.50;;;4.20;86.10;;;;;;6125475;23;20068;-82
2021/04/27 05:30:43;;;;;;;7.18;4.07;;;4.20;86.90;;;;;;6125831;23;20022;-82
2021/04/27 05:33:08;;;;;;;6.22;4.20;;;4.20;85.70;;;;;;6126085;23;20018;-82
2021/04/27 05:35:34;;;;;;;9.30;4.85;;;4.20;85.60;;;;;;6124934;23;20022;-81
2021/04/27 05:38:03;;;;;;;7.85;4.30;;;4.30;85.80;;;;;;6126562;23;20018;-85
2021/04/27 05:40:31;;;;;;;7.43;4.38;;;4.30;86.00;;;;;;6126091;23;20084;-86
2021/04/27 05:42:57;;;;;;;6.95;4.20;;;4.30;85.90;;;;;;6125540;23;20018;-84
2021/04/27 05:45:33;;;;;;;7.93;4.50;;;4.30;85.50;;;;;;6125192;23;20088;-87
2021/04/27 05:48:26;;;;;;;6.47;4.20;;;4.30;85.60;;;;;;6102218;23;20025;-87
2021/04/27 05:50:57;;;;;;;8.88;3.75;;;4.30;85.00;;;;;;6123743;23;20144;-87
2021/04/27 05:53:26;;;;;;;7.60;3.90;;;4.30;85.30;;;;;;6125931;23;20013;-88
2021/04/27 05:55:58;;;;;;;10.27;4.50;;;4.40;85.00;;;;;;6125961;23;20053;-90
2021/04/27 05:58:24;;;;;;;7.18;4.05;;;4.40;84.80;;;;;;6125341;23;20092;-90
2021/04/27 06:00:50;;;;;;;8.07;4.10;;;4.40;84.70;;;;;;6126479;23;20057;-86
2021/04/27 06:03:22;;;;;;;6.25;4.03;;;4.40;84.90;;;;;;6125616;23;20022;-85
2021/04/27 06:05:47;;;;;;;7.07;3.70;;;4.40;84.90;;;;;;6125611;23;20037;-86
2021/04/27 06:08:29;;;;;;;7.47;3.85;;;4.50;84.80;;;;;;6126033;23;20018;-87
2021/04/27 06:10:56;;;;;;;6.47;3.72;;;4.50;85.90;;;;;;6124876;23;20021;-85
2021/04/27 06:13:37;;;;;;;8.05;3.83;;;4.50;85.00;;;;;;6125359;23;20442;-85
2021/04/27 06:16:04;;;;;;;6.00;3.60;;;4.60;84.70;;;;;;6125566;23;20078;-86
2021/04/27 06:18:30;;;;;;;7.22;3.55;;;4.60;84.70;;;;;;6125291;23;20013;-87
2021/04/27 06:20:56;;;;;;;6.43;3.47;;;4.70;84.60;;;;;;6124675;23;20061;-87
2021/04/27 06:23:22;;;;;;;6.70;2.95;;;4.80;84.60;;;;;;6126126;23;20038;-88
2021/04/27 06:25:48;;;;;;;7.68;3.47;;;4.90;84.10;;;;;;6125097;23;20386;-88
2021/04/27 06:28:23;;;;;;;6.60;3.60;;;5.00;83.90;;;;;;6126385;23;20014;-88
2021/04/27 06:31:07;;;;;;;6.72;3.60;;;5.10;83.90;;;;;;6125984;23;20029;-88
2021/04/27 06:33:54;;;;;;;7.32;3.45;;;5.30;83.80;;;;;;6125159;23;20014;-89
2021/04/27 06:36:28;;;;;;;7.05;3.35;;;5.40;84.10;;;;;;6126274;23;20021;-87
2021/04/27 06:38:54;;;;;;;6.18;3.13;;;5.60;83.60;;;;;;6124603;23;20331;-87
2021/04/27 06:41:20;;;;;;;8.45;3.35;;;5.60;82.80;;;;;;6126229;23;20073;-89
2021/04/27 06:43:46;;;;;;;7.15;2.95;;;5.70;82.40;;;;;;6126647;23;20065;-88
2021/04/27 06:46:18;;;;;;;6.82;2.70;;;5.90;82.00;;;;;;6126535;23;20014;-89
2021/04/27 06:48:53;;;;;;;4.50;2.60;;;6.00;81.60;;;;;;6124957;23;20025;-91
2021/04/27 06:51:21;;;;;;;6.20;2.80;;;6.10;81.30;;;;;;6125326;23;20087;-87
2021/04/27 06:53:50;;;;;;;6.03;2.58;;;6.20;80.80;;;;;;6125789;23;20034;-88
2021/04/27 06:56:24;;;;;;;5.18;2.80;;;6.30;81.00;;;;;;6126818;23;20018;-90
2021/04/27 06:58:55;;;;;;;5.10;2.75;;;6.40;80.60;;;;;;6126894;23;20018;-87
2021/04/27 07:01:21;;;;;;;4.55;2.22;;;6.50;80.40;;;;;;6126639;23;20025;-92
2021/04/27 07:07:09;;;;;;;5.43;2.70;;;6.70;79.40;;;;;;6125053;23;20338;-88
2021/04/27 07:09:46;;;;;;;5.13;2.20;;;6.90;79.70;;;;;;6125663;23;20026;-89
2021/04/27 07:12:12;;;;;;;5.47;2.60;;;7.00;78.70;;;;;;6126100;23;20014;-88
2021/04/27 07:14:45;;;;;;;4.75;2.15;;;7.10;78.90;;;;;;6124711;23;20438;-88
2021/04/27 07:17:28;;;;;;;4.25;1.95;;;7.20;78.10;;;;;;6126359;23;20025;-89
2021/04/27 07:19:55;;;;;;;5.57;2.33;;;7.30;76.40;;;;;;6124070;23;20439;-83
2021/04/27 07:22:21;;;;;;;4.38;2.10;;;7.40;76.20;;;;;;6125150;23;20078;-85
2021/04/27 07:24:47;;;;;;;4.25;2.10;;;7.50;75.80;;;;;;6125621;23;20021;-84
2021/04/27 07:27:22;;;;;;;5.18;2.30;;;7.60;75.20;;;;;;6126041;23;20014;-84
2021/04/27 07:29:48;;;;;;;4.47;2.17;;;7.70;74.80;;;;;;6126100;23;20049;-83
2021/04/27 07:32:14;;;;;;;4.97;2.33;;;7.90;73.90;;;;;;6127304;23;20018;-84
2021/04/27 07:34:41;;;;;;;6.63;2.50;;;8.00;75.20;;;;;;6127050;23;20053;-84
2021/04/27 07:37:08;;;;;;;4.28;2.10;;;8.10;74.80;;;;;;6127673;23;20454;-84
2021/04/27 07:39:33;;;;;;;6.40;2.30;;;8.20;73.70;;;;;;6126954;23;20022;-88
2021/04/27 07:41:59;;;;;;;5.90;1.98;;;8.40;73.80;;;;;;6127107;23;20469;-88
2021/04/27 07:44:28;;;;;;;6.28;2.08;;;8.40;72.70;;;;;;6128008;23;20021;-89
2021/04/27 07:46:54;;;;;;;5.93;1.98;;;8.60;71.50;;;;;;6127113;23;20028;-88
2021/04/27 07:49:20;;;;;;;4.35;2.00;;;8.70;71.90;;;;;;6126809;23;20101;-89
2021/04/27 07:51:46;;;;;;;4.75;2.20;;;8.80;72.10;;;;;;6126902;23;20094;-87
2021/04/27 07:54:24;;;;;;;6.80;1.88;;;8.90;71.30;;;;;;6126579;23;20026;-88
2021/04/27 07:56:49;;;;;;;6.18;2.00;;;9.00;70.50;;;;;;6125179;23;20466;-88
2021/04/27 07:59:18;;;;;;;4.55;2.13;;;9.10;70.00;;;;;;6127404;23;20029;-89
2021/04/27 08:02:21;;;;;;;6.63;1.90;;;9.30;69.80;;;;;;6128925;23;20092;-90
2021/04/27 08:04:50;;;;;;;4.60;1.80;;;9.40;66.60;;;;;;6127226;23;20018;-90
2021/04/27 08:07:19;;;;;;;4.28;1.80;;;9.50;67.40;;;;;;6129044;23;20014;-90
2021/04/27 08:11:10;;;;;;;5.18;2.03;;;9.60;67.70;;;;;;6128748;23;20014;-91
2021/04/27 08:13:17;;;;;;;4.72;2.00;;;9.80;69.90;;;;;;6118865;23;20022;-91
2021/04/27 08:15:55;;;;;;;6.25;2.15;;;10.00;66.30;;;;;;6127291;23;20077;-91
2021/04/27 08:18:21;;;;;;;6.75;1.90;;;10.10;63.10;;;;;;6127605;23;20085;-91
2021/04/27 08:20:50;;;;;;;5.15;1.70;;;10.20;60.70;;;;;;6127230;23;20018;-91
2021/04/27 08:23:22;;;;;;;7.07;2.00;;;10.30;59.20;;;;;;6128209;23;20022;-92
2021/04/27 08:25:48;;;;;;;8.02;2.17;;;10.40;58.40;;;;;;6127448;23;20024;-92
2021/04/27 08:28:19;;;;;;;8.02;2.28;;;10.50;59.50;;;;;;6126973;23;20176;-91
2021/04/27 08:31:26;;;;;;;5.38;1.85;;;10.60;60.20;;;;;;6127727;23;20050;-90
2021/04/27 08:34:01;;;;;;;6.45;2.00;;;10.70;60.40;;;;;;6128376;23;20125;-91
2021/04/27 08:36:46;;;;;;;5.38;2.03;;;10.80;59.10;;;;;;6127723;23;20014;-91
2021/04/27 08:39:11;;;;;;;3.85;1.80;;;11.00;58.50;;;;;;6128713;23;20018;-91
2021/04/27 08:41:52;;;;;;;4.47;2.00;;;11.10;59.20;;;;;;6110640;23;20022;-92
2021/04/27 08:44:19;;;;;;;4.22;2.20;;;11.20;59.70;;;;;;6128895;23;20073;-92
2021/04/27 08:47:04;;;;;;;4.88;1.90;;;11.30;59.50;;;;;;6127912;23;20021;-91
2021/04/27 08:50:23;;;;;;;5.75;1.77;;;11.30;55.50;;;;;;6125238;23;20302;-88
2021/04/27 08:52:57;;;;;;;4.25;1.90;;;11.30;52.40;;;;;;6126734;23;20022;-93
2021/04/27 08:55:25;;;;;;;5.47;1.90;;;11.40;53.30;;;;;;6126260;23;20022;-88
2021/04/27 08:57:53;;;;;;;5.10;2.03;;;11.50;53.20;;;;;;6125543;23;20032;-88
2021/04/27 09:00:23;;;;;;;5.70;2.15;;;11.60;54.80;;;;;;6126075;23;20018;-91
2021/04/27 09:02:56;;;;;;;7.57;2.08;;;11.60;54.70;;;;;;6127098;23;20025;-91
2021/04/27 09:05:34;;;;;;;5.38;2.30;;;11.80;52.10;;;;;;6128626;23;20025;-91
2021/04/27 09:08:27;;;;;;;8.70;2.17;;;11.80;52.50;;;;;;6126989;23;20014;-90
2021/04/27 09:10:53;;;;;;;5.25;2.10;;;11.90;50.50;;;;;;6121031;23;20021;-84
2021/04/27 09:13:19;;;;;;;9.13;2.30;;;11.90;51.10;;;;;;6125155;23;20443;-86
2021/04/27 09:16:04;;;;;;;5.30;2.13;;;11.90;49.20;;;;;;6125870;23;20117;-89
2021/04/27 09:30:49;;;;;;;4.90;2.22;;;12.40;53.60;;;;;;6119311;23;20112;-88
2021/04/27 09:33:15;;;;;;;6.68;2.00;;;12.50;53.60;;;;;;6126113;23;20439;-87
2021/04/27 09:35:50;;;;;;;4.82;1.90;;;12.60;53.80;;;;;;6125502;23;20109;-87
2021/04/27 09:38:26;;;;;;;7.28;2.05;;;12.70;54.10;;;;;;6126749;23;20372;-86
2021/04/27 09:40:58;;;;;;;4.28;2.03;;;12.80;53.70;;;;;;6117096;23;20057;-91
2021/04/27 09:43:32;;;;;;;7.43;1.90;;;12.90;53.30;;;;;;6138922;23;20062;-91
2021/04/27 09:46:19;;;;;;;;;;;12.90;53.60;;;;;;6129896;23;20427;-89
2021/04/27 09:48:58;;;;;;;5.20;1.77;;;13.00;52.00;;;;;;6126798;23;19987;-87
2021/04/27 09:51:55;;;;;;;8.43;2.00;;;13.10;51.20;;;;;;6107307;23;20395;-85
2021/04/27 09:54:22;;;;;;;6.78;1.67;;;13.10;48.00;;;;;;6124343;23;20041;-89
2021/04/27 09:57:46;;;;;;;5.22;1.60;;;13.10;48.60;;;;;;5939770;24;20039;-88
2021/04/27 10:00:29;;;;;;;9.05;1.98;;;13.10;47.40;;;;;;5984372;24;20095;-88
2021/04/27 10:02:58;;;;;;;4.65;1.92;;;13.10;46.70;;;;;;5978476;24;20028;-84
2021/04/27 10:05:41;;;;;;;4.15;1.60;;;13.10;47.70;;;;;;5998296;23;20024;-87
2021/04/27 10:08:17;;;;;;;7.75;1.67;;;13.10;47.90;;;;;;6127002;23;20021;-83
2021/04/27 10:10:54;;;;;;;5.43;1.65;;;13.20;49.00;;;;;;6127118;23;20014;-87
2021/04/27 10:15:57;;;;;;;3.38;1.58;;;13.30;48.60;;;;;;6128699;23;20018;-88
2021/04/27 10:18:23;;;;;;;5.75;1.95;;;13.40;48.60;;;;;;6124197;23;20037;-92
2021/04/27 10:21:04;;;;;;;6.47;1.70;;;13.40;49.30;;;;;;6126437;23;20428;-90
2021/04/27 10:23:33;;;;;;;3.35;1.60;;;13.50;49.20;;;;;;6126464;23;20466;-89
2021/04/27 10:25:59;;;;;;;4.82;1.50;;;13.60;46.20;;;;;;6127014;23;20018;-92
2021/04/27 10:29:06;;;;;;;5.53;1.80;;;13.50;48.20;;;;;;6127084;23;20138;-93
2021/04/27 10:31:38;;;;;;;6.70;1.73;;;13.70;50.60;;;;;;6126999;23;20022;-94
2021/04/27 10:34:20;;;;;;;4.75;1.80;;;13.80;49.10;;;;;;6129597;23;20077;-94
2021/04/27 10:36:51;;;;;;;4.80;2.00;;;13.90;48.40;;;;;;6128824;23;20017;-88
2021/04/27 10:39:52;;;;;;;4.60;1.67;;;13.90;49.70;;;;;;6126838;23;20029;-92
2021/04/27 10:42:36;;;;;;;6.10;1.77;;;14.00;48.00;;;;;;6128773;23;20335;-89
2021/04/27 10:45:30;;;;;;;5.65;1.85;;;14.10;49.40;;;;;;6126891;23;20029;-89
2021/04/27 10:48:03;;;;;;;3.75;1.52;;;14.10;48.50;;;;;;6125823;23;20473;-89
2021/04/27 10:50:42;;;;;;;3.42;1.40;;;14.20;45.70;;;;;;6124413;23;20093;-93
2021/04/27 10:53:30;;;;;;;4.28;1.70;;;14.20;45.70;;;;;;6120628;23;20025;-93
2021/04/27 10:56:02;;;;;;;4.82;1.60;;;14.20;44.70;;;;;;6124903;23;20485;-90
2021/04/27 10:59:02;;;;;;;4.95;1.92;;;14.20;47.30;;;;;;6125725;23;20020;-90
2021/04/27 11:01:29;;;;;;;4.63;1.55;;;14.20;45.90;;;;;;6115348;23;20022;-91
2021/04/27 11:03:56;;;;;;;5.55;1.80;;;14.30;48.70;;;;;;6127468;23;20346;-91
2021/04/27 11:06:37;;;;;;;9.50;1.63;;;14.40;49.70;;;;;;6127345;23;20021;-91
2021/04/27 11:09:22;;;;;;;3.53;1.58;;;14.60;49.20;;;;;;6126257;23;20026;-90
2021/04/27 11:11:47;;;;;;;5.28;1.52;;;14.70;48.10;;;;;;6126322;23;20563;-89
2021/04/27 11:14:24;;;;;;;4.03;1.30;;;14.80;49.10;;;;;;6126404;23;20068;-92
2021/04/27 11:16:57;;;;;;;3.75;1.40;;;14.90;48.40;;;;;;6126766;23;20014;-90
2021/04/27 11:19:29;;;;;;;2.88;1.50;;;15.00;47.40;;;;;;6127608;23;20025;-91
2021/04/27 11:22:23;;;;;;;4.30;1.63;;;15.00;47.40;;;;;;6126842;23;20049;-90
2021/04/27 11:24:51;;;;;;;5.25;1.50;;;15.10;46.50;;;;;;6118712;23;20018;-88
2021/04/27 11:27:32;;;;;;;5.85;2.00;;;15.00;47.60;;;;;;6126893;23;20018;-91
2021/04/27 11:30:09;;;;;;;9.23;2.03;;;15.10;48.10;;;;;;6127800;23;20022;-91
2021/04/27 11:33:13;;;;;;;7.55;1.63;;;15.20;48.10;;;;;;6122597;23;20022;-89
2021/04/27 11:36:03;;;;;;;5.05;1.90;;;15.20;47.50;;;;;;6126457;23;20018;-93
2021/04/27 11:38:51;;;;;;;6.07;1.58;;;15.30;47.30;;;;;;6131333;23;20049;-96
2021/04/27 11:41:58;;;;;;;4.03;1.60;;;15.40;47.20;;;;;;6129907;23;20108;-95
2021/04/27 11:44:38;;;;;;;4.32;1.80;;;15.40;45.80;;;;;;6130879;23;20451;-94
2021/04/27 11:47:17;;;;;;;5.28;1.80;;;15.50;46.70;;;;;;6128620;23;20014;-93
2021/04/27 11:50:01;;;;;;;5.18;1.83;;;15.40;47.30;;;;;;6127867;23;20045;-93
2021/04/27 11:53:06;;;;;;;6.50;1.83;;;15.50;47.10;;;;;;6131704;23;20018;-92
2021/04/27 11:55:53;;;;;;;11.95;1.90;;;15.60;46.80;;;;;;6130576;23;20121;-91
2021/04/27 11:58:32;;;;;;;10.57;1.67;;;15.60;47.10;;;;;;6127010;23;20025;-88
2021/04/27 12:01:11;;;;;;;6.88;1.92;;;15.60;46.70;;;;;;6127032;23;20018;-89
2021/04/27 12:03:47;;;;;;;6.63;1.88;;;15.70;47.30;;;;;;6126628;23;20014;-89
2021/04/27 12:06:18;;;;;;;5.20;1.77;;;15.70;46.50;;;;;;6126485;23;20101;-88
2021/04/27 12:08:54;;;;;;;7.53;1.70;;;15.80;46.80;;;;;;6126610;23;20022;-87
2021/04/27 12:11:36;;;;;;;5.80;1.80;;;15.80;45.30;;;;;;6126389;23;20372;-88
2021/04/27 12:14:07;;;;;;;3.53;1.90;;;15.70;44.80;;;;;;6126616;23;20014;-87
2021/04/27 12:16:47;;;;;;;5.03;1.70;;;15.80;45.70;;;;;;6125589;23;20018;-89
2021/04/27 12:19:31;;;;;;;8.43;2.10;;;15.70;45.60;;;;;;6125427;23;20324;-89
2021/04/27 12:22:05;;;;;;;4.50;1.85;;;15.80;45.90;;;;;;6127107;23;20021;-88
2021/04/27 12:24:46;;;;;;;4.43;1.70;;;15.80;43.90;;;;;;6126392;23;20088;-88
2021/04/27 12:27:18;;;;;;;5.10;2.00;;;15.70;44.00;;;;;;6127790;23;20017;-92
2021/04/27 12:30:05;;;;;;;6.65;2.03;;;15.80;44.90;;;;;;6127003;23;20341;-86
2021/04/27 12:32:33;;;;;;;7.32;1.90;;;15.80;44.70;;;;;;6126610;23;20017;-87
2021/04/27 12:35:00;;;;;;;5.43;1.90;;;15.80;44.80;;;;;;6127175;23;20025;-87
2021/04/27 12:37:27;;;;;;;6.85;2.00;;;15.80;45.10;;;;;;6125919;23;20533;-86
2021/04/27 12:39:57;;;;;;;5.78;2.00;;;15.80;45.80;;;;;;6126964;23;20022;-83
2021/04/27 12:42:29;;;;;;;5.20;1.80;;;15.90;45.10;;;;;;6126585;23;20312;-89
2021/04/27 12:45:01;;;;;;;4.97;2.03;;;15.90;45.90;;;;;;6125983;23;20017;-88
2021/04/27 12:47:29;;;;;;;6.80;1.92;;;15.90;46.90;;;;;;6127043;23;20034;-89
2021/04/27 12:50:11;;;;;;;5.82;1.80;;;16.00;45.90;;;;;;6126817;23;20017;-88
2021/04/27 12:52:52;;;;;;;4.85;1.70;;;16.00;44.80;;;;;;6099703;23;20097;-87
2021/04/27 12:55:29;;;;;;;4.82;1.77;;;16.10;43.40;;;;;;6127178;23;20094;-86
2021/04/27 12:58:13;;;;;;;4.55;1.60;;;16.10;44.00;;;;;;6100840;23;20093;-88
2021/04/27 13:00:59;;;;;;;7.45;1.92;;;16.00;44.10;;;;;;6126671;23;20069;-87
2021/04/27 13:03:27;;;;;;;4.90;1.75;;;16.00;45.60;;;;;;6126668;23;20020;-90
2021/04/27 13:05:54;;;;;;;5.68;1.80;;;16.10;45.70;;;;;;6125553;23;20021;-87
2021/04/27 13:08:25;;;;;;;6.88;2.20;;;16.10;46.60;;;;;;6126715;23;20085;-87
2021/04/27 13:10:52;;;;;;;9.20;2.13;;;16.20;45.40;;;;;;6126338;23;20026;-84
2021/04/27 13:13:20;;;;;;;6.07;2.20;;;16.10;45.40;;;;;;6126032;23;20343;-87
2021/04/27 13:16:00;;;;;;;11.27;2.47;;;16.20;42.90;;;;;;6120983;23;20025;-90
2021/04/27 13:18:28;;;;;;;5.80;2.03;;;16.10;42.00;;;;;;6126004;23;20026;-87
2021/04/27 13:21:00;;;;;;;14.25;2.70;;;16.10;41.80;;;;;;6124491;23;20037;-86
2021/04/27 13:23:34;;;;;;;27.00;3.30;;;16.00;43.20;;;;;;6126783;23;20014;-88
2021/04/27 13:26:20;;;;;;;10.00;2.72;;;16.00;45.20;;;;;;6125997;23;20049;-85
2021/04/27 13:28:56;;;;;;;7.45;2.50;;;16.00;44.30;;;;;;6125766;23;20018;-85
2021/04/27 13:31:31;;;;;;;11.45;2.40;;;16.10;44.00;;;;;;6126734;23;20017;-85
2021/04/27 13:33:58;;;;;;;12.45;2.95;;;16.10;44.70;;;;;;6125659;23;20025;-85
2021/04/27 13:36:24;;;;;;;7.75;2.40;;;16.10;45.10;;;;;;6126243;23;20077;-86